Time;durP1;ratioP1;P1;durP2;ratioP2;P2;SDS_P1;SDS_P2;PMS_P1;PMS_P2;Temp;Humidity;BMP_temperature;BMP_pressure;BME280_temperature;BME280_humidity;BME280_pressure;Samples;Min_cycle;Max_cycle;Signal;HPM_P1;HPM_P2
2022/10/17 00:00:41;;;;;;;42.47;28.33;;;;;;;11.71;100.00;101488.59;5091545;28;20040;-48
2022/10/17 00:03:06;;;;;;;41.70;30.50;;;;;;;11.74;100.00;101493.88;5092338;28;20027;-49
2022/10/17 00:05:32;;;;;;;42.05;28.35;;;;;;;11.66;100.00;101490.16;5093607;28;20424;-49
2022/10/17 00:07:57;;;;;;;36.30;25.63;;;;;;;11.57;100.00;101485.53;5095148;28;20545;-49
2022/10/17 00:10:23;;;;;;;35.58;26.15;;;;;;;11.57;100.00;101484.63;5096134;28;20044;-49
2022/10/17 00:12:50;;;;;;;35.33;24.40;;;;;;;11.50;100.00;101489.59;5095538;28;20020;-49
2022/10/17 00:15:18;;;;;;;34.53;24.17;;;;;;;11.47;100.00;101489.47;5095183;28;20043;-49
2022/10/17 00:17:43;;;;;;;35.85;25.73;;;;;;;11.52;100.00;101480.19;5095415;28;20530;-49
2022/10/17 00:20:09;;;;;;;41.00;26.10;;;;;;;11.48;100.00;101486.06;5095633;28;20107;-50
2022/10/17 00:22:34;;;;;;;35.33;25.83;;;;;;;11.41;100.00;101484.06;5094472;28;20471;-48
2022/10/17 00:24:59;;;;;;;40.72;29.08;;;;;;;11.60;100.00;101484.75;5095825;28;20105;-49
2022/10/17 00:27:25;;;;;;;44.25;30.95;;;;;;;11.60;100.00;101477.03;5095800;28;20032;-48
2022/10/17 00:29:51;;;;;;;41.85;27.15;;;;;;;11.52;100.00;101475.03;5094695;28;20031;-49
2022/10/17 00:32:17;;;;;;;35.50;26.05;;;;;;;11.47;100.00;101473.13;5095601;28;20387;-48
2022/10/17 00:34:43;;;;;;;38.78;27.98;;;;;;;11.61;100.00;101465.88;5095245;28;20042;-49
2022/10/17 00:37:08;;;;;;;41.45;27.65;;;;;;;11.53;100.00;101463.88;5094664;28;20398;-47
2022/10/17 00:39:33;;;;;;;44.00;29.88;;;;;;;11.72;100.00;101459.34;5095073;28;20024;-46
2022/10/17 00:41:59;;;;;;;49.97;32.20;;;;;;;11.86;100.00;101458.16;5095111;28;20075;-45
2022/10/17 00:44:30;;;;;;;46.40;31.58;;;;;;;11.95;100.00;101456.69;5094539;28;20040;-45
2022/10/17 00:46:56;;;;;;;51.60;30.85;;;;;;;12.01;100.00;101462.97;5095201;28;20036;-44
2022/10/17 00:49:23;;;;;;;49.05;30.05;;;;;;;12.02;100.00;101466.44;5095186;28;20357;-45
2022/10/17 00:51:50;;;;;;;45.47;30.00;;;;;;;12.12;100.00;101460.75;5094048;28;20020;-46
2022/10/17 00:54:19;;;;;;;47.67;31.58;;;;;;;12.21;100.00;101459.31;5095286;28;20039;-45
2022/10/17 00:56:46;;;;;;;43.25;28.70;;;;;;;12.21;100.00;101464.47;5094195;28;20028;-45
2022/10/17 00:59:13;;;;;;;47.47;28.35;;;;;;;12.27;100.00;101464.69;5095088;28;20040;-45
2022/10/17 01:01:41;;;;;;;45.50;29.92;;;;;;;12.34;100.00;101462.34;5094591;28;20035;-46
2022/10/17 01:04:06;;;;;;;;;;;;;;;12.38;100.00;101465.00;5094559;28;20161;-45
2022/10/17 01:06:32;;;;;;;38.03;27.97;;;;;;;12.43;100.00;101461.72;5094501;28;19963;-44
2022/10/17 01:08:57;;;;;;;38.97;27.25;;;;;;;12.42;100.00;101454.81;5095274;28;20332;-45
2022/10/17 01:11:31;;;;;;;36.63;25.80;;;;;;;12.45;100.00;101459.22;5094044;28;20046;-45
2022/10/17 01:14:17;;;;;;;41.25;27.75;;;;;;;12.49;100.00;101450.72;5094578;28;20357;-45
2022/10/17 01:17:12;;;;;;;39.72;26.83;;;;;;;12.47;100.00;101450.69;5094270;28;20030;-44
2022/10/17 01:20:04;;;;;;;40.30;27.20;;;;;;;12.51;100.00;101449.03;5063886;28;20068;-44
2022/10/17 01:22:51;;;;;;;36.35;26.75;;;;;;;12.52;100.00;101459.47;5094430;28;20501;-44
2022/10/17 01:25:19;;;;;;;;;;;;;;;12.55;100.00;101455.19;5094089;28;20028;-46
2022/10/17 01:28:06;;;;;;;37.80;27.38;;;;;;;12.58;100.00;101451.00;5094366;28;19912;-44
2022/10/17 01:31:22;;;;;;;40.55;29.48;;;;;;;12.62;100.00;101455.44;5094378;28;20039;-45
2022/10/17 01:34:15;;;;;;;46.08;29.83;;;;;;;12.66;100.00;101448.66;5031004;28;20116;-45
2022/10/17 01:36:52;;;;;;;37.80;27.95;;;;;;;12.67;100.00;101455.59;5092929;28;20089;-45
2022/10/17 01:39:30;;;;;;;39.72;27.85;;;;;;;12.69;100.00;101446.16;5093632;28;20051;-44
2022/10/17 01:42:10;;;;;;;42.70;28.48;;;;;;;12.69;100.00;101446.16;5093853;28;20052;-45
2022/10/17 01:44:45;;;;;;;43.33;28.30;;;;;;;12.72;100.00;101438.50;5094121;28;20039;-45
2022/10/17 01:47:16;;;;;;;44.63;29.38;;;;;;;12.72;100.00;101433.31;5093701;28;20036;-45
2022/10/17 01:49:45;;;;;;;41.85;28.52;;;;;;;12.68;100.00;101436.66;5093863;28;20054;-45
2022/10/17 01:52:16;;;;;;;41.40;28.75;;;;;;;12.75;100.00;101438.59;5093901;28;20035;-46
2022/10/17 01:54:46;;;;;;;46.15;29.35;;;;;;;12.78;100.00;101438.69;5093132;28;20027;-48
2022/10/17 01:57:23;;;;;;;43.10;29.33;;;;;;;12.80;100.00;101439.59;5093829;28;20510;-45
2022/10/17 01:59:51;;;;;;;45.35;29.95;;;;;;;12.78;100.00;101441.28;5093661;28;20024;-46
2022/10/17 02:02:19;;;;;;;45.90;29.45;;;;;;;12.84;100.00;101444.03;5092891;28;20414;-45
2022/10/17 02:04:48;;;;;;;47.45;30.02;;;;;;;12.87;100.00;101437.19;5093498;28;20099;-46
2022/10/17 02:07:14;;;;;;;44.55;30.50;;;;;;;12.95;100.00;101433.13;5092847;28;20357;-45
2022/10/17 02:09:39;;;;;;;42.58;29.70;;;;;;;12.96;100.00;101433.19;5093594;28;20019;-44
2022/10/17 02:12:23;;;;;;;48.53;28.67;;;;;;;12.96;100.00;101435.78;5093887;28;20489;-46
2022/10/17 02:15:19;;;;;;;41.30;28.38;;;;;;;12.95;100.00;101430.53;5092588;28;20039;-44
2022/10/17 02:18:14;;;;;;;42.80;28.65;;;;;;;13.00;100.00;101428.94;5092728;28;20028;-46
2022/10/17 02:20:53;;;;;;;43.05;29.17;;;;;;;12.97;100.00;101434.06;5093344;28;20035;-44
2022/10/17 02:23:33;;;;;;;39.03;26.80;;;;;;;13.00;100.00;101424.66;5092591;28;20039;-45
2022/10/17 02:26:17;;;;;;;39.30;28.67;;;;;;;12.99;100.00;101424.63;5093563;28;20028;-44
2022/10/17 02:29:04;;;;;;;36.72;27.67;;;;;;;12.97;100.00;101428.88;5092037;28;20031;-45
2022/10/17 02:31:44;;;;;;;40.88;28.17;;;;;;;12.93;100.00;101419.28;5093443;28;20028;-46
2022/10/17 02:34:31;;;;;;;43.47;29.17;;;;;;;12.97;100.00;101431.47;5093303;28;20364;-46
2022/10/17 02:37:01;;;;;;;40.72;28.70;;;;;;;12.98;100.00;101426.31;5092610;28;20073;-45
2022/10/17 02:39:28;;;;;;;49.33;30.42;;;;;;;13.05;100.00;101427.38;5093183;28;20391;-45
2022/10/17 02:41:56;;;;;;;45.58;30.40;;;;;;;13.07;100.00;101430.91;5092676;28;20122;-46
2022/10/17 02:44:23;;;;;;;38.38;28.70;;;;;;;13.06;100.00;101429.13;5092185;28;20032;-45
2022/10/17 02:46:58;;;;;;;42.35;29.02;;;;;;;13.09;100.00;101424.06;5093048;28;20028;-45
2022/10/17 02:49:28;;;;;;;45.40;29.95;;;;;;;13.13;100.00;101425.00;5092186;28;20544;-45
2022/10/17 02:52:04;;;;;;;40.13;27.77;;;;;;;13.11;100.00;101427.56;5092899;28;20031;-46
2022/10/17 02:54:58;;;;;;;41.03;28.58;;;;;;;13.18;100.00;101426.91;5092900;28;20379;-45
2022/10/17 02:57:29;;;;;;;39.10;28.73;;;;;;;13.18;100.00;101421.72;5084693;28;20037;-45
2022/10/17 02:59:57;;;;;;;43.65;27.75;;;;;;;13.42;100.00;101422.41;5093067;28;20032;-45
2022/10/17 03:02:23;;;;;;;43.85;28.10;;;;;;;13.45;100.00;101418.19;5092975;28;20037;-45
2022/10/17 03:04:49;;;;;;;42.92;26.95;;;;;;;13.53;100.00;101423.56;5091899;28;20391;-45
2022/10/17 03:07:14;;;;;;;37.47;26.30;;;;;;;13.71;100.00;101425.78;5092876;28;20055;-45
2022/10/17 03:09:39;;;;;;;36.88;24.42;;;;;;;13.84;100.00;101419.19;5092804;28;20035;-45
2022/10/17 03:12:05;;;;;;;36.35;23.73;;;;;;;13.89;100.00;101424.47;5092059;28;20032;-44
2022/10/17 03:14:30;;;;;;;32.22;22.65;;;;;;;13.91;100.00;101417.63;5092730;28;20425;-45
2022/10/17 03:16:55;;;;;;;31.27;21.48;;;;;;;13.98;100.00;101427.28;5092813;28;20028;-45
2022/10/17 03:19:21;;;;;;;33.78;22.17;;;;;;;13.97;100.00;101422.97;5092078;28;20035;-45
2022/10/17 03:21:46;;;;;;;32.78;21.60;;;;;;;14.04;100.00;101414.47;5092487;28;20059;-46
2022/10/17 03:24:11;;;;;;;31.67;20.90;;;;;;;14.04;100.00;101424.84;5093023;28;20366;-45
2022/10/17 03:26:37;;;;;;;32.05;21.70;;;;;;;14.09;100.00;101412.88;5091924;28;20048;-49
2022/10/17 03:29:02;;;;;;;30.30;20.95;;;;;;;14.10;100.00;101427.59;5092828;28;20067;-45
2022/10/17 03:31:27;;;;;;;31.70;21.58;;;;;;;14.11;100.00;101421.59;5092010;28;20056;-45
2022/10/17 03:33:53;;;;;;;27.13;20.55;;;;;;;14.07;100.00;101422.34;5092533;28;20107;-45
2022/10/17 03:36:18;;;;;;;30.08;20.13;;;;;;;14.08;100.00;101418.91;5092584;28;20024;-46
2022/10/17 03:38:44;;;;;;;36.10;21.25;;;;;;;14.06;100.00;101420.59;5091841;28;20021;-45
2022/10/17 03:41:10;;;;;;;29.58;20.67;;;;;;;14.07;100.00;101418.88;5095116;28;20384;-45
2022/10/17 03:43:36;;;;;;;31.27;20.95;;;;;;;14.07;100.00;101427.53;5096121;28;20352;-45
2022/10/17 03:46:02;;;;;;;29.73;20.33;;;;;;;14.04;100.00;101422.25;5095672;28;20082;-45
2022/10/17 03:48:29;;;;;;;33.25;20.75;;;;;;;14.08;100.00;101420.63;5096402;28;20157;-47
2022/10/17 03:51:03;;;;;;;32.08;19.95;;;;;;;14.09;100.00;101412.88;5096116;28;20032;-47
2022/10/17 03:53:28;;;;;;;35.50;20.40;;;;;;;14.09;100.00;101410.28;5095762;28;20105;-44
2022/10/17 03:55:54;;;;;;;27.60;20.30;;;;;;;14.13;100.00;101406.94;5096189;28;20071;-45
2022/10/17 03:58:19;;;;;;;29.55;19.67;;;;;;;14.14;100.00;101416.47;5096314;28;20032;-48
2022/10/17 04:00:44;;;;;;;31.35;19.75;;;;;;;14.12;100.00;101417.25;5095136;28;20066;-45
2022/10/17 04:03:10;;;;;;;27.77;19.83;;;;;;;14.15;100.00;101419.91;5096019;28;20036;-45
2022/10/17 04:05:35;;;;;;;32.70;20.35;;;;;;;14.12;100.00;101418.13;5095745;28;20459;-45
2022/10/17 04:08:00;;;;;;;32.58;20.08;;;;;;;14.15;100.00;101425.09;5095354;28;20028;-46
2022/10/17 04:10:26;;;;;;;29.30;19.95;;;;;;;14.16;100.00;101425.16;5095884;28;20547;-46
2022/10/17 04:12:51;;;;;;;25.63;19.58;;;;;;;14.18;100.00;101427.78;5095843;28;20119;-45
2022/10/17 04:15:16;;;;;;;27.20;19.83;;;;;;;14.21;100.00;101433.03;5095165;28;20491;-46
2022/10/17 04:17:42;;;;;;;30.73;19.90;;;;;;;14.26;100.00;101428.84;5095512;28;20044;-45
2022/10/17 04:20:07;;;;;;;30.33;20.20;;;;;;;14.29;100.00;101435.81;5095732;28;20028;-44
2022/10/17 04:22:33;;;;;;;33.55;18.85;;;;;;;14.35;100.00;101435.97;5094774;28;20078;-44
2022/10/17 04:24:58;;;;;;;27.35;18.25;;;;;;;14.34;100.00;101439.38;5095828;28;20024;-45
2022/10/17 04:27:23;;;;;;;29.42;18.63;;;;;;;14.34;100.00;101444.56;5095514;28;20028;-47
2022/10/17 04:29:48;;;;;;;24.20;16.92;;;;;;;14.35;100.00;101448.94;5094566;28;20028;-45
2022/10/17 04:32:14;;;;;;;25.23;17.77;;;;;;;14.35;100.00;101448.94;5095690;28;20024;-46
2022/10/17 04:34:39;;;;;;;29.25;18.52;;;;;;;14.37;100.00;101454.13;5095203;28;20463;-46
2022/10/17 04:37:04;;;;;;;26.42;18.42;;;;;;;14.38;100.00;101461.09;5094853;28;20031;-46
2022/10/17 04:39:30;;;;;;;26.52;17.95;;;;;;;14.41;100.00;101456.84;5095296;28;20111;-45
2022/10/17 04:41:55;;;;;;;27.65;17.00;;;;;;;14.42;100.00;101458.63;5094271;28;20060;-45
2022/10/17 04:44:21;;;;;;;24.55;17.08;;;;;;;14.47;100.00;101461.28;5095443;28;20020;-45
2022/10/17 04:46:46;;;;;;;22.88;17.50;;;;;;;14.47;100.00;101469.06;5095022;28;20024;-50
2022/10/17 04:49:11;;;;;;;26.10;17.58;;;;;;;14.45;100.00;101473.38;5094330;28;20051;-46
2022/10/17 04:51:38;;;;;;;26.63;17.55;;;;;;;14.48;100.00;101469.09;5094356;28;20024;-45
2022/10/17 04:54:03;;;;;;;25.27;18.00;;;;;;;14.47;100.00;101472.56;5095178;28;20024;-45
2022/10/17 04:56:28;;;;;;;27.23;17.40;;;;;;;14.45;100.00;101479.41;5094138;28;20020;-46
2022/10/17 04:58:53;;;;;;;28.00;17.20;;;;;;;14.48;100.00;101483.81;5094950;28;20020;-45
2022/10/17 05:01:21;;;;;;;24.83;16.05;;;;;;;14.49;100.00;101486.44;5094874;28;20032;-45
2022/10/17 05:03:46;;;;;;;25.40;15.95;;;;;;;14.48;100.00;101492.44;5093886;28;20031;-45
2022/10/17 05:06:17;;;;;;;25.08;16.40;;;;;;;14.49;100.00;101496.81;5094781;28;20027;-45
2022/10/17 05:08:43;;;;;;;23.50;16.00;;;;;;;14.52;100.00;101492.53;5094799;28;20034;-45
2022/10/17 05:11:35;;;;;;;20.95;15.68;;;;;;;14.55;100.00;101500.38;5094165;28;20051;-46
2022/10/17 05:14:01;;;;;;;26.25;16.38;;;;;;;14.56;100.00;101489.19;5091020;28;20120;-47
2022/10/17 05:16:28;;;;;;;25.65;17.63;;;;;;;14.55;100.00;101480.53;5094666;28;20114;-45
2022/10/17 05:18:55;;;;;;;23.93;17.13;;;;;;;14.56;100.00;101478.81;5093809;28;20034;-45
2022/10/17 05:21:22;;;;;;;22.08;16.58;;;;;;;14.52;100.00;101490.81;5094643;28;20271;-45
2022/10/17 05:23:47;;;;;;;26.30;16.90;;;;;;;14.53;100.00;101487.38;5094284;28;20084;-45
2022/10/17 05:26:13;;;;;;;22.67;16.80;;;;;;;14.53;100.00;101502.09;5093820;28;20357;-45
2022/10/17 05:28:38;;;;;;;24.95;16.95;;;;;;;14.52;100.00;101497.72;5094243;28;20119;-44
2022/10/17 05:31:06;;;;;;;27.35;16.52;;;;;;;14.58;100.00;101500.47;5093559;28;20081;-45
2022/10/17 05:33:32;;;;;;;27.55;17.00;;;;;;;14.60;100.00;101499.66;5094487;28;20036;-49
2022/10/17 05:35:57;;;;;;;26.35;16.67;;;;;;;14.63;100.00;101504.91;5094477;28;20028;-45
2022/10/17 05:38:23;;;;;;;23.88;16.77;;;;;;;14.63;100.00;101509.25;5093519;28;20036;-45
2022/10/17 05:40:48;;;;;;;23.83;17.02;;;;;;;14.64;100.00;101501.53;5093837;28;20135;-45
2022/10/17 05:43:13;;;;;;;22.85;16.33;;;;;;;14.65;100.00;101504.97;5094108;28;20039;-45
2022/10/17 05:45:39;;;;;;;30.52;17.42;;;;;;;14.66;100.00;101509.34;5092992;28;20360;-46
2022/10/17 05:48:05;;;;;;;32.08;16.48;;;;;;;14.70;100.00;101513.75;5093957;28;20060;-45
2022/10/17 05:50:30;;;;;;;28.15;16.55;;;;;;;14.73;100.00;101516.44;5093965;28;20024;-45
2022/10/17 05:52:56;;;;;;;26.45;16.92;;;;;;;14.75;100.00;101514.72;5093070;28;20028;-45
2022/10/17 05:55:22;;;;;;;24.10;16.23;;;;;;;14.75;100.00;101516.47;5093938;28;20032;-46
2022/10/17 05:57:47;;;;;;;32.42;16.70;;;;;;;14.77;100.00;101522.53;5093606;28;20030;-47
2022/10/17 06:00:13;;;;;;;34.45;16.13;;;;;;;14.81;100.00;101514.88;5092856;28;20042;-45
2022/10/17 06:02:38;;;;;;;27.27;17.08;;;;;;;14.85;100.00;101522.72;5092430;28;20107;-45
2022/10/17 06:05:03;;;;;;;24.17;16.48;;;;;;;14.88;100.00;101520.22;5093883;28;20475;-45
2022/10/17 06:07:29;;;;;;;24.02;16.42;;;;;;;14.90;100.00;101521.09;5093087;28;20016;-47
2022/10/17 06:09:54;;;;;;;20.48;14.80;;;;;;;14.87;100.00;101518.47;5093475;28;20430;-45
2022/10/17 06:12:19;;;;;;;26.00;15.98;;;;;;;14.88;100.00;101522.81;5093476;28;20034;-46
2022/10/17 06:14:44;;;;;;;31.58;16.73;;;;;;;14.91;100.00;101515.97;5092470;28;20460;-45
2022/10/17 06:17:10;;;;;;;21.58;16.13;;;;;;;14.92;100.00;101515.09;5093687;28;20024;-45
2022/10/17 06:19:35;;;;;;;21.45;15.00;;;;;;;14.98;100.00;101516.97;5093433;28;20016;-45
2022/10/17 06:22:01;;;;;;;27.10;15.18;;;;;;;14.97;100.00;101518.69;5092661;28;20020;-45
2022/10/17 06:24:26;;;;;;;22.80;15.23;;;;;;;14.97;100.00;101517.81;5093469;28;20027;-46
2022/10/17 06:26:51;;;;;;;25.08;16.70;;;;;;;14.99;100.00;101523.94;5093118;28;20471;-46
2022/10/17 06:29:17;;;;;;;25.13;16.30;;;;;;;14.99;100.00;101523.94;5092403;28;20375;-45
2022/10/17 06:31:42;;;;;;;28.42;15.50;;;;;;;15.02;100.00;101524.00;5093213;28;20031;-45
2022/10/17 06:34:07;;;;;;;24.80;15.50;;;;;;;15.01;100.00;101522.22;5093176;28;20032;-46
2022/10/17 06:36:32;;;;;;;26.48;16.60;;;;;;;15.03;100.00;101523.16;5092250;28;20024;-45
2022/10/17 06:38:58;;;;;;;21.80;15.45;;;;;;;15.06;100.00;101520.63;5093387;28;20031;-45
2022/10/17 06:41:24;;;;;;;25.30;14.73;;;;;;;15.12;100.00;101536.34;5092155;28;20040;-46
2022/10/17 06:43:49;;;;;;;25.75;15.45;;;;;;;15.13;100.00;101532.00;5092858;28;20028;-45
2022/10/17 06:46:16;;;;;;;25.90;15.27;;;;;;;15.18;100.00;101532.13;5093215;28;20371;-45
2022/10/17 06:48:41;;;;;;;23.23;14.80;;;;;;;15.23;100.00;101538.28;5092168;28;20131;-45
2022/10/17 06:51:10;;;;;;;22.20;15.07;;;;;;;15.27;100.00;101538.41;5093109;28;20173;-45
2022/10/17 06:53:37;;;;;;;22.73;14.73;;;;;;;15.32;100.00;101559.25;5092784;28;20166;-46
2022/10/17 06:56:04;;;;;;;27.23;14.45;;;;;;;15.35;100.00;101556.75;5092079;28;20499;-45
2022/10/17 06:58:35;;;;;;;22.38;14.98;;;;;;;15.37;100.00;101552.44;5092934;28;20032;-47
2022/10/17 07:01:03;;;;;;;24.08;14.73;;;;;;;15.40;100.00;101549.03;5093063;28;20024;-46
2022/10/17 07:03:28;;;;;;;22.60;14.23;;;;;;;15.43;100.00;101551.72;5091970;28;20489;-46
2022/10/17 07:05:55;;;;;;;25.85;14.50;;;;;;;15.48;100.00;101545.75;5092584;28;20540;-45
2022/10/17 07:08:20;;;;;;;28.00;14.52;;;;;;;15.53;100.00;101550.16;5092859;28;20482;-45
2022/10/17 07:10:46;;;;;;;22.00;13.55;;;;;;;15.58;100.00;101558.91;5091758;28;20028;-45
2022/10/17 07:13:11;;;;;;;23.77;13.70;;;;;;;15.61;100.00;101559.00;5092736;28;20020;-45
2022/10/17 07:15:37;;;;;;;18.85;12.95;;;;;;;15.64;100.00;101556.44;5096180;28;20020;-45
2022/10/17 07:18:03;;;;;;;27.30;14.00;;;;;;;15.66;100.00;101554.78;5096281;28;20027;-46
2022/10/17 07:20:29;;;;;;;22.95;13.43;;;;;;;15.69;100.00;101554.81;5096934;28;20065;-45
2022/10/17 07:22:54;;;;;;;20.30;13.10;;;;;;;15.74;100.00;101552.31;5096716;28;20039;-45
2022/10/17 07:25:19;;;;;;;20.70;12.90;;;;;;;15.75;100.00;101554.94;5095997;28;20376;-46
2022/10/17 07:27:45;;;;;;;21.42;13.60;;;;;;;15.77;100.00;101568.84;5096379;28;20027;-45
2022/10/17 07:30:10;;;;;;;24.27;13.50;;;;;;;15.77;100.00;101574.03;5096817;28;20048;-45
2022/10/17 07:32:36;;;;;;;23.25;12.25;;;;;;;15.79;100.00;101577.53;5095724;28;20028;-46
2022/10/17 07:35:01;;;;;;;21.50;13.20;;;;;;;15.79;100.00;101580.16;5096675;28;20035;-46
2022/10/17 07:37:28;;;;;;;19.98;11.68;;;;;;;15.80;100.00;101594.00;5096464;28;20039;-46
2022/10/17 07:39:53;;;;;;;24.25;12.40;;;;;;;15.83;100.00;101614.91;5095357;28;20024;-45
2022/10/17 07:42:18;;;;;;;28.90;12.70;;;;;;;15.86;100.00;101645.28;5096083;28;20050;-47
2022/10/17 07:44:46;;;;;;;17.35;11.00;;;;;;;15.86;100.00;101663.50;5095507;28;20024;-45
2022/10/17 07:47:11;;;;;;;;;;;;;;;15.87;100.00;101678.22;5096722;28;20024;-45
2022/10/17 07:49:41;;;;;;;22.00;11.67;;;;;;;15.79;100.00;101691.03;5095941;28;19916;-45
2022/10/17 07:52:08;;;;;;;24.50;11.55;;;;;;;15.76;100.00;101716.94;5095456;28;20273;-45
2022/10/17 07:54:34;;;;;;;20.20;12.88;;;;;;;15.72;100.00;101726.38;5095963;28;20031;-45
2022/10/17 07:56:59;;;;;;;19.60;12.48;;;;;;;15.67;100.00;101721.94;5096403;28;20024;-46
2022/10/17 07:59:24;;;;;;;25.20;12.70;;;;;;;15.63;100.00;101721.00;5095552;28;20446;-44
2022/10/17 08:01:50;;;;;;;27.63;14.00;;;;;;;15.58;100.00;101725.22;5095703;28;20551;-44
2022/10/17 08:04:16;;;;;;;31.23;14.80;;;;;;;15.52;100.00;101707.78;5095949;28;20036;-45
2022/10/17 08:06:41;;;;;;;26.17;14.07;;;;;;;15.45;100.00;101691.16;5094933;28;20028;-44
2022/10/17 08:09:06;;;;;;;26.50;14.55;;;;;;;15.42;100.00;101717.06;5095876;28;20024;-45
2022/10/17 08:11:32;;;;;;;22.60;14.18;;;;;;;15.38;100.00;101711.78;5095585;28;20020;-45
2022/10/17 08:13:57;;;;;;;22.92;14.73;;;;;;;15.34;100.00;101703.03;5095185;28;20032;-45
2022/10/17 08:16:22;;;;;;;23.17;13.82;;;;;;;15.32;100.00;101709.88;5095934;28;20072;-45
2022/10/17 08:18:47;;;;;;;25.00;15.00;;;;;;;15.30;100.00;101715.06;5095476;28;20024;-44
2022/10/17 08:21:13;;;;;;;25.80;15.88;;;;;;;15.30;100.00;101732.38;5094907;28;20027;-46
2022/10/17 08:23:38;;;;;;;25.27;16.08;;;;;;;15.26;100.00;101748.69;5095252;28;20028;-44
2022/10/17 08:26:06;;;;;;;27.27;17.15;;;;;;;15.26;100.00;101772.06;5094645;28;20028;-44
2022/10/17 08:28:34;;;;;;;32.72;18.55;;;;;;;15.24;100.00;101799.72;5094658;28;20089;-44
2022/10/17 08:31:05;;;;;;;27.45;18.75;;;;;;;15.24;100.00;101804.94;5095538;28;20390;-45
2022/10/17 08:33:31;;;;;;;31.67;18.67;;;;;;;15.22;100.00;101772.84;5095510;28;20042;-44
2022/10/17 08:35:59;;;;;;;30.20;18.08;;;;;;;15.23;100.00;101764.22;5094585;28;20529;-45
2022/10/17 08:38:25;;;;;;;;;;;;;;;15.26;100.00;101782.44;5095689;28;20479;-46
2022/10/17 08:40:50;;;;;;;25.50;18.35;;;;;;;15.25;100.00;101791.09;5094826;28;20003;-44
2022/10/17 08:43:27;;;;;;;37.45;19.20;;;;;;;15.24;100.00;101765.97;5094650;28;20024;-44
2022/10/17 08:46:01;;;;;;;36.08;19.98;;;;;;;15.22;100.00;101771.13;5095067;28;20384;-45
2022/10/17 08:48:30;;;;;;;39.83;21.05;;;;;;;15.22;100.00;101780.63;5094610;28;20033;-44
2022/10/17 08:51:16;;;;;;;27.90;17.63;;;;;;;15.21;100.00;101774.56;5095230;28;20028;-44
2022/10/17 08:53:50;;;;;;;27.25;16.77;;;;;;;15.22;100.00;101763.34;5095077;28;20031;-44
2022/10/17 08:56:25;;;;;;;24.92;16.88;;;;;;;15.21;100.00;101764.19;5094473;28;20035;-44
2022/10/17 08:58:50;;;;;;;29.58;16.88;;;;;;;15.22;100.00;101770.22;5094688;28;20936;-47
2022/10/17 09:01:39;;;;;;;28.30;17.38;;;;;;;15.23;100.00;101772.00;5094900;28;20040;-45
2022/10/17 09:04:23;;;;;;;27.38;17.73;;;;;;;15.23;100.00;101762.47;5094261;28;20173;-44
2022/10/17 09:07:14;;;;;;;30.00;18.15;;;;;;;15.27;100.00;101779.03;5094688;28;20024;-44
2022/10/17 09:09:57;;;;;;;32.83;17.83;;;;;;;15.25;100.00;101772.94;5093667;28;20570;-44
2022/10/17 09:12:46;;;;;;;26.80;18.38;;;;;;;15.26;100.00;101785.03;5094953;28;20085;-44
2022/10/17 09:15:36;;;;;;;27.70;17.25;;;;;;;15.24;100.00;101804.94;5094830;28;20034;-45
2022/10/17 09:18:31;;;;;;;36.40;18.73;;;;;;;15.22;100.00;101812.69;5093773;28;20031;-44
2022/10/17 09:21:04;;;;;;;36.85;18.95;;;;;;;15.21;100.00;101836.00;5081367;28;20044;-45
2022/10/17 09:23:46;;;;;;;32.00;18.15;;;;;;;15.20;100.00;101834.25;5093781;28;20135;-44
2022/10/17 09:26:11;;;;;;;33.80;20.35;;;;;;;15.18;100.00;101841.13;5094564;28;20032;-44
2022/10/17 09:28:39;;;;;;;31.73;20.10;;;;;;;15.14;100.00;101830.66;5093998;28;20081;-44
2022/10/17 09:31:15;;;;;;;34.10;21.27;;;;;;;15.15;100.00;101814.22;5093729;28;20024;-43
2022/10/17 09:33:43;;;;;;;33.72;20.27;;;;;;;15.15;100.00;101780.47;5094157;28;20028;-43
2022/10/17 09:36:19;;;;;;;33.10;19.63;;;;;;;15.15;100.00;101749.28;5094492;28;20016;-45
2022/10/17 09:38:51;;;;;;;32.42;19.60;;;;;;;15.19;100.00;101733.81;5093036;28;20455;-44
2022/10/17 09:41:20;;;;;;;32.08;19.83;;;;;;;15.24;100.00;101738.28;5094202;28;20047;-44
2022/10/17 09:43:46;;;;;;;28.48;19.33;;;;;;;15.30;100.00;101756.59;5094004;28;20098;-46
2022/10/17 09:46:22;;;;;;;29.88;19.63;;;;;;;15.32;100.00;101772.22;5093415;28;20471;-44
2022/10/17 09:49:02;;;;;;;29.10;18.27;;;;;;;15.31;100.00;101799.03;5093794;28;20024;-44
2022/10/17 09:51:28;;;;;;;27.08;18.75;;;;;;;15.30;100.00;101799.91;5093170;28;20036;-46
2022/10/17 09:54:02;;;;;;;33.38;18.70;;;;;;;15.29;100.00;101824.09;5093655;28;20475;-44
2022/10/17 09:56:27;;;;;;;24.08;17.33;;;;;;;15.28;100.00;101796.38;5094055;28;20039;-43
2022/10/17 09:58:56;;;;;;;25.33;17.23;;;;;;;15.31;100.00;101799.03;5092762;28;20024;-45
2022/10/17 10:01:26;;;;;;;25.00;18.35;;;;;;;15.34;100.00;101786.13;5093708;28;20542;-44
2022/10/17 10:04:15;;;;;;;24.00;17.50;;;;;;;15.37;100.00;101781.00;5093445;28;20384;-45
2022/10/17 10:07:00;;;;;;;28.83;18.90;;;;;;;15.40;100.00;101778.50;5092656;28;20102;-43
2022/10/17 10:09:33;;;;;;;25.70;19.63;;;;;;;15.41;100.00;101784.56;5093756;28;20024;-44
2022/10/17 10:12:04;;;;;;;29.27;19.25;;;;;;;15.44;100.00;101787.22;5093749;28;20089;-44
2022/10/17 10:14:38;;;;;;;28.98;19.63;;;;;;;15.45;100.00;101789.88;5092679;28;20073;-44
2022/10/17 10:17:24;;;;;;;31.45;19.70;;;;;;;15.45;100.00;101808.06;5093656;28;20043;-44
2022/10/17 10:19:50;;;;;;;30.95;19.23;;;;;;;15.47;100.00;101811.56;5092551;28;20115;-43
2022/10/17 10:22:18;;;;;;;27.88;18.52;;;;;;;15.46;100.00;101807.19;5093322;28;20479;-44
2022/10/17 10:24:44;;;;;;;28.40;19.10;;;;;;;15.47;100.00;101814.16;5093013;28;20442;-44
2022/10/17 10:27:17;;;;;;;31.52;19.85;;;;;;;15.52;100.00;101826.38;5092572;28;20028;-44
2022/10/17 10:29:49;;;;;;;31.17;21.13;;;;;;;15.58;100.00;101836.94;5093193;28;20028;-44
2022/10/17 10:32:19;;;;;;;31.92;21.23;;;;;;;15.63;100.00;101840.53;5093413;28;20032;-44
2022/10/17 10:34:54;;;;;;;33.60;21.17;;;;;;;15.68;100.00;101849.31;5092184;28;20028;-44
2022/10/17 10:37:24;;;;;;;31.65;20.13;;;;;;;15.64;100.00;101850.94;5093177;28;20035;-44
2022/10/17 10:39:56;;;;;;;28.17;18.70;;;;;;;15.68;100.00;101854.50;5092918;28;20379;-44
2022/10/17 10:42:23;;;;;;;30.90;19.13;;;;;;;15.72;100.00;101860.66;5092251;28;20055;-45
2022/10/17 10:44:49;;;;;;;32.65;17.20;;;;;;;15.70;100.00;101863.25;5093004;28;20020;-44
2022/10/17 10:47:15;;;;;;;25.33;15.27;;;;;;;15.69;100.00;101877.06;5093132;28;20030;-46
2022/10/17 10:49:41;;;;;;;27.60;17.90;;;;;;;15.69;100.00;101882.25;5091617;28;20100;-45
2022/10/17 10:52:09;;;;;;;26.98;17.58;;;;;;;15.68;100.00;101890.91;5093232;28;20771;-45
2022/10/17 10:54:42;;;;;;;23.52;15.73;;;;;;;15.65;100.00;101890.84;5091920;28;20483;-45
2022/10/17 10:57:18;;;;;;;22.88;16.30;;;;;;;15.66;100.00;101896.91;5093119;28;20024;-46
2022/10/17 10:59:52;;;;;;;23.02;14.75;;;;;;;15.63;100.00;101906.38;5092838;28;20024;-44
2022/10/17 11:02:29;;;;;;;23.48;14.55;;;;;;;15.61;100.00;101907.19;5092034;28;20031;-45
2022/10/17 11:04:58;;;;;;;;;;;;;;;15.68;100.00;101901.28;5093506;28;20112;-44
2022/10/17 11:07:35;;;;;;;32.90;15.77;;;;;;;15.60;100.00;101903.69;5092942;28;19922;-46
2022/10/17 11:10:14;;;;;;;21.50;15.80;;;;;;;15.59;100.00;101901.94;5092081;28;20032;-43
2022/10/17 11:12:51;;;;;;;22.67;14.63;;;;;;;15.61;100.00;101900.25;5092533;28;20032;-45